Strona główna
METAR-TAF:

METAR-TAF

Lotnisko :

Port lotniczy Pardubice

Pardubice, Czechy

Szerokość geograficzna: 50-00-48N, Długość geograficzna: 15-44-19E, wysokość: 226 m

Aktualna obserwacja pogody

Raport powstał 35 minut temu, godzina 20:30 UTC
Wiatr 8 kt od zachodnio-południowy zachód
Temperatura 2°C
Wilgotność 69%
Ciśnienie 997 hPa
Widzialność 10 km lub więcej
Zachmurzenie całkowite na wysokości 4500 ft

METAR: LKPD 242030Z 25008KT 9999 OVC045 02/M03 Q0997 NOSIG

czas: 22:05 (21:05 UTC)

Prognoza

Raport powstał 4 godziny i 5 minut temu, godzina 17:00 UTC
Prognoza ważna od 24 godzina 18 UTC do 25 godzina 18 UTC
Wiatr 8 kt od zachodnio-południowy zachód
Widzialność 10 km lub więcej
Przerywane chmury na wysokości 4000 ft
Przejściowo
od 24 godzina 18 UTC do 25 godzina 18 UTC
Widzialność: 4000 m
Przerywane chmury na wysokości 2000 ft
śnieg
Stopniowe zmiany
od 24 godzina 20 UTC do 24 godzina 22 UTC
Wiatr 8 kt od zachodnio-północny zachód

TAF: LKPD 241700Z 2418/2518 24008KT 9999 BKN040 TEMPO 2418/2518 4000 SN BKN020 BECMG 2420/2422 29008KT

Obserwacja i prognoza pogody dla ponad 4000 lotnisk (raport METAR i TAF).

Dostępne stacje oznaczono żółtymi i czerwonymi punktami na mapie.

Najedź kursorem aby zobaczyć nazwę stacji.

Kliknij aby zobaczyć obserwacje i prognozy pogody.

Aby zmienić mapę: kliknij na zielony przycisk z czarnym krzyżykiem, aby powiększyć; na zielony przycisk z myślnikiem, aby pomniejszyć; na zielone strzałki, aby przejść do map sąsiednich.


METAR-TAF: